Time;durP1;ratioP1;P1;durP2;ratioP2;P2;SDS_P1;SDS_P2;PMS_P1;PMS_P2;Temp;Humidity;BMP_temperature;BMP_pressure;BME280_temperature;BME280_humidity;BME280_pressure;Samples;Min_cycle;Max_cycle;Signal;HPM_P1;HPM_P2
2021/04/10 00:02:14;;;;;;;7.30;0.30;;;4.70;91.10;;;;;;3621293;39;20039;-85
2021/04/10 00:04:40;;;;;;;8.07;0.30;;;4.70;91.10;;;;;;3626918;39;20042;-84
2021/04/10 00:07:06;;;;;;;7.78;0.40;;;4.60;91.30;;;;;;3616017;39;20074;-82
2021/04/10 00:09:32;;;;;;;8.02;0.90;;;4.70;90.80;;;;;;3616700;39;20135;-79
2021/04/10 00:11:59;;;;;;;8.40;1.38;;;4.70;90.90;;;;;;3617160;39;20051;-82
2021/04/10 00:14:25;;;;;;;7.65;1.20;;;4.80;90.60;;;;;;3625387;39;20039;-80
2021/04/10 00:16:51;;;;;;;8.63;0.80;;;4.80;90.70;;;;;;3623603;39;20508;-82
2021/04/10 00:19:17;;;;;;;13.07;0.68;;;4.80;90.90;;;;;;3625664;39;20031;-83
2021/04/10 00:21:43;;;;;;;10.27;1.63;;;4.80;90.60;;;;;;3617551;39;20034;-78
2021/04/10 00:24:12;;;;;;;9.32;1.02;;;4.80;90.50;;;;;;3627374;39;20042;-83
2021/04/10 00:26:38;;;;;;;8.55;0.52;;;4.80;90.80;;;;;;3617260;39;20061;-83
2021/04/10 00:29:04;;;;;;;9.27;0.60;;;4.70;90.80;;;;;;3617747;39;20082;-85
2021/04/10 00:31:30;;;;;;;9.35;1.30;;;4.80;90.50;;;;;;3615514;39;20035;-83
2021/04/10 00:33:55;;;;;;;9.57;0.40;;;4.80;90.50;;;;;;3616981;39;20322;-78
2021/04/10 00:36:22;;;;;;;6.65;0.50;;;4.80;90.50;;;;;;3616679;39;20046;-82
2021/04/10 00:38:47;;;;;;;8.07;0.50;;;4.80;90.50;;;;;;3616048;39;20123;-84
2021/04/10 00:41:14;;;;;;;5.38;1.15;;;4.80;90.80;;;;;;3619496;39;20046;-86
2021/04/10 00:43:40;;;;;;;13.20;2.45;;;4.70;90.70;;;;;;3616946;39;20046;-85
2021/04/10 00:46:07;;;;;;;9.20;0.98;;;4.70;90.60;;;;;;3616102;39;20624;-82
2021/04/10 00:48:33;;;;;;;6.32;0.52;;;4.70;90.70;;;;;;3617281;39;20203;-84
2021/04/10 00:50:59;;;;;;;7.65;0.57;;;4.70;90.80;;;;;;3607313;39;20123;-80
2021/04/10 00:53:27;;;;;;;11.48;1.27;;;4.60;90.80;;;;;;3626682;39;20038;-77
2021/04/10 00:55:56;;;;;;;3.72;1.50;;;4.70;91.00;;;;;;3627037;39;20331;-81
2021/04/10 00:58:22;;;;;;;12.63;0.85;;;4.60;90.90;;;;;;3617399;39;20046;-86
2021/04/10 01:00:48;;;;;;;9.27;0.80;;;4.60;90.90;;;;;;3617409;39;20039;-82
2021/04/10 01:03:14;;;;;;;10.05;1.27;;;4.60;91.20;;;;;;3626987;39;20130;-84
2021/04/10 01:05:40;;;;;;;9.65;0.57;;;4.60;91.20;;;;;;3623785;39;20046;-79
2021/04/10 01:08:06;;;;;;;5.78;1.20;;;4.60;91.10;;;;;;3616653;39;20039;-80
2021/04/10 01:10:32;;;;;;;6.40;0.65;;;4.60;91.10;;;;;;3620375;39;20362;-83
2021/04/10 01:13:17;;;;;;;9.60;1.15;;;4.60;91.00;;;;;;3616600;39;20059;-79
2021/04/10 01:16:04;;;;;;;8.00;1.48;;;4.60;91.00;;;;;;3616039;39;20039;-82
2021/04/10 01:18:39;;;;;;;13.90;1.77;;;4.50;91.10;;;;;;3616215;39;20039;-81
2021/04/10 01:21:09;;;;;;;17.13;3.15;;;4.60;91.20;;;;;;3622052;39;20064;-85
2021/04/10 01:23:47;;;;;;;3.75;1.13;;;4.50;91.00;;;;;;3617102;39;20069;-84
2021/04/10 01:26:31;;;;;;;6.15;0.85;;;4.50;91.00;;;;;;3623240;39;20051;-78
2021/04/10 01:29:04;;;;;;;4.82;0.95;;;4.50;91.00;;;;;;3616701;39;20087;-79
2021/04/10 01:31:44;;;;;;;6.68;0.45;;;4.50;91.10;;;;;;3625694;39;20034;-79
2021/04/10 01:34:31;;;;;;;12.25;1.15;;;4.50;91.00;;;;;;3617438;39;20075;-78
2021/04/10 01:37:06;;;;;;;12.95;0.88;;;4.50;91.10;;;;;;3607127;39;20043;-77
2021/04/10 01:39:33;;;;;;;;;;;4.50;91.10;;;;;;3616540;39;20229;-84
2021/04/10 01:41:59;;;;;;;14.73;2.90;;;4.40;91.70;;;;;;3623375;39;19971;-80
2021/04/10 01:44:27;;;;;;;7.63;0.32;;;4.40;91.30;;;;;;3626643;39;20045;-83
2021/04/10 01:46:54;;;;;;;10.43;0.60;;;4.40;91.20;;;;;;3615216;39;20088;-82
2021/04/10 01:49:19;;;;;;;7.97;0.82;;;4.40;91.30;;;;;;3616155;39;20039;-82
2021/04/10 01:51:47;;;;;;;15.30;0.65;;;4.30;91.30;;;;;;3606828;39;20494;-81
2021/04/10 01:54:14;;;;;;;5.90;0.30;;;4.40;91.40;;;;;;3607099;39;20050;-81
2021/04/10 01:56:44;;;;;;;5.03;0.50;;;4.40;91.30;;;;;;3616463;39;20674;-85
2021/04/10 01:59:12;;;;;;;4.32;0.40;;;4.30;91.30;;;;;;3616577;39;20097;-80
2021/04/10 02:01:40;;;;;;;6.50;0.57;;;4.30;91.40;;;;;;3616067;39;20050;-85
2021/04/10 02:04:08;;;;;;;3.95;0.28;;;4.30;91.40;;;;;;3616404;39;20038;-84
2021/04/10 02:06:34;;;;;;;8.43;0.88;;;4.30;91.30;;;;;;3617769;39;20046;-82
2021/04/10 02:09:01;;;;;;;7.22;1.33;;;4.30;91.40;;;;;;3615439;39;20043;-81
2021/04/10 02:11:27;;;;;;;1.63;0.20;;;4.30;91.30;;;;;;3600001;39;20043;-81
2021/04/10 02:13:54;;;;;;;5.22;0.40;;;4.40;91.30;;;;;;3606139;39;20069;-82
2021/04/10 02:16:21;;;;;;;9.23;0.70;;;4.30;91.30;;;;;;3586955;40;20044;-84
2021/04/10 02:18:48;;;;;;;7.32;0.63;;;4.30;91.40;;;;;;3593539;40;20084;-83
2021/04/10 02:21:21;;;;;;;2.85;0.40;;;4.30;91.40;;;;;;3590516;40;20260;-84
2021/04/10 02:23:46;;;;;;;6.82;0.30;;;4.30;91.50;;;;;;3583611;40;20122;-83
2021/04/10 02:26:13;;;;;;;3.97;0.25;;;4.30;91.70;;;;;;3583367;40;20073;-83
2021/04/10 02:28:39;;;;;;;3.58;0.20;;;4.30;91.60;;;;;;3583485;40;20048;-79
2021/04/10 02:31:05;;;;;;;3.83;0.20;;;4.30;91.50;;;;;;3585036;40;20080;-85
2021/04/10 02:33:39;;;;;;;7.80;0.73;;;4.30;91.60;;;;;;3579887;39;20036;-84
2021/04/10 02:36:09;;;;;;;6.05;0.20;;;4.30;91.50;;;;;;3613558;39;20047;-78
2021/04/10 02:38:36;;;;;;;8.52;1.27;;;4.30;91.50;;;;;;3611792;39;20050;-84
2021/04/10 02:41:20;;;;;;;6.50;0.20;;;4.20;91.50;;;;;;3606910;39;20043;-82
2021/04/10 02:43:54;;;;;;;4.25;0.20;;;4.20;91.70;;;;;;3607997;39;20424;-84
2021/04/10 02:46:22;;;;;;;5.82;0.20;;;4.20;91.40;;;;;;3610684;39;20042;-86
2021/04/10 02:49:12;;;;;;;4.20;0.55;;;4.20;91.60;;;;;;3607301;39;20044;-83
2021/04/10 02:51:57;;;;;;;3.08;0.17;;;4.20;91.60;;;;;;3597745;39;20053;-81
2021/04/10 02:54:27;;;;;;;0.95;0.82;;;4.20;91.50;;;;;;3607164;39;20163;-79
2021/04/10 02:57:08;;;;;;;4.97;0.22;;;4.20;91.60;;;;;;3607421;39;20219;-79
2021/04/10 02:59:37;;;;;;;3.55;0.85;;;4.10;91.60;;;;;;3607248;39;20230;-81
2021/04/10 03:02:04;;;;;;;2.88;0.55;;;4.20;91.60;;;;;;3607414;39;20333;-79
2021/04/10 03:04:30;;;;;;;6.00;1.13;;;4.20;91.60;;;;;;3607312;39;20039;-78
2021/04/10 03:06:57;;;;;;;3.30;0.20;;;4.10;91.60;;;;;;3616032;39;20640;-81
2021/04/10 03:09:23;;;;;;;3.00;0.10;;;4.10;91.60;;;;;;3624436;39;20046;-80
2021/04/10 03:11:49;;;;;;;2.58;0.75;;;4.20;91.50;;;;;;3621254;39;20046;-81
2021/04/10 03:14:15;;;;;;;2.15;0.68;;;4.10;91.50;;;;;;3617851;39;20218;-76
2021/04/10 03:16:42;;;;;;;2.33;0.25;;;4.10;91.60;;;;;;3612819;39;20129;-80
2021/04/10 03:19:09;;;;;;;0.95;0.10;;;4.10;91.60;;;;;;3617577;39;20039;-83
2021/04/10 03:21:34;;;;;;;1.90;0.10;;;4.10;91.60;;;;;;3601921;39;20034;-80
2021/04/10 03:24:01;;;;;;;0.47;0.10;;;4.10;91.70;;;;;;3617565;39;20054;-82
2021/04/10 03:26:26;;;;;;;0.55;0.10;;;4.10;91.60;;;;;;3616026;39;20043;-77
2021/04/10 03:28:54;;;;;;;2.38;0.20;;;4.10;91.70;;;;;;3618036;39;20332;-78
2021/04/10 03:31:21;;;;;;;6.22;0.52;;;4.10;91.70;;;;;;3625907;39;20042;-79
2021/04/10 03:33:47;;;;;;;4.95;0.47;;;4.10;91.80;;;;;;3616269;39;20130;-78
2021/04/10 03:36:14;;;;;;;2.33;0.63;;;4.10;91.80;;;;;;3611919;39;20271;-83
2021/04/10 03:38:42;;;;;;;2.05;0.20;;;4.10;92.00;;;;;;3607453;39;20047;-80
2021/04/10 03:41:08;;;;;;;1.23;0.13;;;4.10;91.90;;;;;;3616799;39;20100;-84
2021/04/10 03:43:34;;;;;;;1.10;0.10;;;4.10;92.10;;;;;;3616046;39;20055;-83
2021/04/10 03:46:01;;;;;;;0.68;0.43;;;4.10;91.60;;;;;;3624609;39;20061;-82
2021/04/10 03:48:31;;;;;;;0.20;0.13;;;4.20;91.30;;;;;;3618643;39;20039;-85
2021/04/10 03:51:00;;;;;;;1.70;0.60;;;4.20;90.80;;;;;;3607651;39;20047;-78
2021/04/10 03:53:26;;;;;;;0.52;0.50;;;4.30;90.70;;;;;;3617040;39;20039;-79
2021/04/10 03:55:52;;;;;;;0.30;0.15;;;4.40;90.50;;;;;;3617538;39;20090;-83
2021/04/10 03:58:18;;;;;;;6.55;0.30;;;4.40;90.50;;;;;;3607776;39;20110;-83
2021/04/10 04:00:44;;;;;;;3.75;0.95;;;4.40;90.40;;;;;;3618334;39;20039;-82
2021/04/10 04:03:10;;;;;;;3.55;0.22;;;4.40;90.70;;;;;;3627181;39;20174;-80
2021/04/10 04:05:35;;;;;;;1.08;0.45;;;4.30;90.20;;;;;;3621020;39;20316;-83
2021/04/10 04:08:01;;;;;;;0.50;0.10;;;4.30;90.20;;;;;;3617805;39;20066;-81
2021/04/10 04:10:27;;;;;;;1.95;0.20;;;4.30;88.90;;;;;;3606543;39;20035;-81
2021/04/10 04:12:53;;;;;;;2.97;0.10;;;4.30;89.20;;;;;;3589115;39;20063;-84
2021/04/10 04:15:19;;;;;;;5.53;0.57;;;4.30;89.10;;;;;;3606631;39;20040;-85
2021/04/10 04:17:45;;;;;;;2.45;0.30;;;4.30;88.30;;;;;;3595408;39;20242;-83
2021/04/10 04:20:11;;;;;;;2.35;0.40;;;4.30;88.70;;;;;;3607094;39;20061;-85
2021/04/10 04:22:37;;;;;;;3.20;0.10;;;4.20;88.80;;;;;;3606800;39;20104;-82
2021/04/10 04:25:03;;;;;;;3.60;1.10;;;4.20;89.30;;;;;;3606199;39;20039;-85
2021/04/10 04:27:29;;;;;;;1.75;0.80;;;4.20;88.00;;;;;;3605777;39;20338;-83
2021/04/10 04:29:55;;;;;;;2.88;0.63;;;4.20;86.90;;;;;;3608786;39;20032;-83
2021/04/10 04:32:25;;;;;;;2.90;0.15;;;4.20;88.80;;;;;;3606531;39;20074;-84
2021/04/10 04:34:51;;;;;;;6.97;1.75;;;4.30;89.40;;;;;;3597121;39;20084;-83
2021/04/10 04:37:17;;;;;;;2.28;0.10;;;4.30;88.90;;;;;;3607456;39;20039;-85
2021/04/10 04:39:44;;;;;;;5.65;0.52;;;4.30;88.80;;;;;;3616648;39;20042;-78
2021/04/10 04:42:10;;;;;;;1.27;0.30;;;4.30;88.60;;;;;;3608422;39;20035;-81
2021/04/10 04:44:36;;;;;;;5.38;0.55;;;4.30;87.80;;;;;;3606395;39;20039;-85
2021/04/10 04:47:01;;;;;;;3.35;0.10;;;4.30;86.70;;;;;;3603526;39;20047;-83
2021/04/10 04:49:27;;;;;;;2.67;0.20;;;4.30;87.40;;;;;;3605203;39;20047;-86
2021/04/10 04:51:54;;;;;;;2.28;0.82;;;4.30;87.60;;;;;;3606170;39;20056;-82
2021/04/10 04:54:21;;;;;;;0.20;0.10;;;4.30;88.00;;;;;;3606389;39;20338;-84
2021/04/10 04:56:47;;;;;;;4.15;0.20;;;4.20;87.50;;;;;;3606510;39;20051;-86
2021/04/10 04:59:13;;;;;;;2.88;0.55;;;4.20;88.30;;;;;;3606729;39;20050;-81
2021/04/10 05:01:39;;;;;;;0.55;0.10;;;4.20;88.80;;;;;;3608534;39;20077;-85
2021/04/10 05:04:05;;;;;;;0.93;0.32;;;4.20;89.00;;;;;;3599189;39;20070;-86
2021/04/10 05:06:31;;;;;;;3.65;1.58;;;4.20;89.80;;;;;;3605923;39;20055;-83
2021/04/10 05:08:57;;;;;;;1.77;0.95;;;4.30;89.50;;;;;;3600305;39;20054;-86
2021/04/10 05:11:22;;;;;;;3.40;0.20;;;4.20;90.10;;;;;;3605924;39;20214;-82
2021/04/10 05:13:50;;;;;;;8.05;0.85;;;4.20;89.50;;;;;;3605312;39;20055;-86
2021/04/10 05:16:16;;;;;;;2.58;0.13;;;4.20;89.50;;;;;;3606808;39;20119;-86
2021/04/10 05:18:42;;;;;;;2.92;0.20;;;4.20;89.50;;;;;;3605146;39;20040;-87
2021/04/10 05:21:08;;;;;;;4.30;0.75;;;4.20;89.60;;;;;;3612534;39;20047;-81
2021/04/10 05:23:34;;;;;;;3.28;0.70;;;4.20;89.80;;;;;;3606652;39;20064;-81
2021/04/10 05:26:00;;;;;;;1.48;0.68;;;4.20;89.60;;;;;;3605889;39;20031;-83
2021/04/10 05:28:25;;;;;;;1.05;0.10;;;4.20;89.60;;;;;;3605068;39;20054;-79
2021/04/10 05:30:52;;;;;;;1.55;0.32;;;4.20;89.60;;;;;;3613367;39;20036;-79
2021/04/10 05:33:19;;;;;;;1.00;0.20;;;4.20;89.60;;;;;;3614758;39;20131;-87
2021/04/10 05:35:44;;;;;;;2.00;0.77;;;4.20;89.40;;;;;;3605300;39;20039;-80
2021/04/10 05:38:10;;;;;;;1.15;0.28;;;4.20;89.30;;;;;;3605498;39;20428;-82
2021/04/10 05:40:37;;;;;;;3.65;0.10;;;4.20;88.80;;;;;;3606554;39;20042;-82
2021/04/10 05:43:03;;;;;;;4.43;0.50;;;4.30;88.80;;;;;;3609485;39;20043;-80
2021/04/10 05:45:29;;;;;;;1.63;0.15;;;4.30;89.10;;;;;;3600353;39;20039;-85
2021/04/10 05:47:54;;;;;;;1.10;0.73;;;4.30;88.70;;;;;;3615966;39;20053;-79
2021/04/10 05:50:20;;;;;;;4.88;0.20;;;4.40;88.90;;;;;;3616231;39;20043;-80
2021/04/10 05:52:47;;;;;;;5.90;0.28;;;4.30;88.30;;;;;;3611477;39;20075;-82
2021/04/10 05:55:13;;;;;;;1.92;0.13;;;4.40;89.20;;;;;;3610989;39;20035;-86
2021/04/10 05:57:39;;;;;;;1.23;0.20;;;4.40;88.10;;;;;;3615651;39;20055;-83
2021/04/10 06:00:05;;;;;;;7.55;1.42;;;4.50;88.50;;;;;;3610182;39;20360;-85
2021/04/10 06:02:32;;;;;;;1.77;0.20;;;4.50;87.60;;;;;;3609822;39;20335;-80
2021/04/10 06:04:58;;;;;;;1.95;0.20;;;4.60;87.00;;;;;;3617083;39;20042;-82
2021/04/10 06:07:23;;;;;;;1.30;0.10;;;4.60;86.90;;;;;;3617340;39;20093;-82
2021/04/10 06:09:49;;;;;;;1.60;0.10;;;4.70;87.10;;;;;;3609742;39;20052;-79
2021/04/10 06:12:15;;;;;;;2.35;0.22;;;4.70;87.20;;;;;;3610237;39;20038;-79
2021/04/10 06:14:41;;;;;;;0.40;0.17;;;4.70;87.80;;;;;;3617336;39;20047;-84
2021/04/10 06:17:06;;;;;;;0.22;0.00;;;4.80;86.30;;;;;;3609308;39;20050;-82
2021/04/10 06:19:32;;;;;;;2.72;0.22;;;4.80;87.20;;;;;;3608905;39;20439;-83
2021/04/10 06:21:58;;;;;;;3.38;0.30;;;4.80;86.20;;;;;;3617334;39;20031;-84
2021/04/10 06:24:24;;;;;;;13.00;2.72;;;5.00;87.80;;;;;;3608631;39;20042;-84
2021/04/10 06:26:52;;;;;;;2.75;1.40;;;4.90;87.00;;;;;;3608983;39;20043;-84
2021/04/10 06:29:21;;;;;;;1.65;0.38;;;4.90;85.60;;;;;;3610634;39;20039;-82
2021/04/10 06:31:48;;;;;;;4.28;1.45;;;5.00;86.80;;;;;;3617026;39;20047;-82
2021/04/10 06:34:14;;;;;;;2.53;0.10;;;5.00;85.90;;;;;;3610178;39;20036;-84
2021/04/10 06:36:40;;;;;;;1.77;0.10;;;5.10;86.60;;;;;;3616822;39;20081;-84
2021/04/10 06:39:06;;;;;;;1.08;0.20;;;5.20;87.70;;;;;;3617245;39;20047;-80
2021/04/10 06:41:35;;;;;;;2.08;0.10;;;5.30;84.30;;;;;;3617188;39;20042;-84
2021/04/10 06:44:04;;;;;;;4.47;0.10;;;5.20;86.70;;;;;;3616732;39;20035;-86
2021/04/10 06:46:34;;;;;;;1.05;0.15;;;5.30;86.50;;;;;;3616763;39;20124;-81
2021/04/10 06:49:05;;;;;;;1.08;0.20;;;5.40;87.20;;;;;;3617548;39;20035;-83
2021/04/10 06:51:30;;;;;;;2.45;0.60;;;5.60;86.30;;;;;;3616978;39;20039;-84
2021/04/10 06:54:01;;;;;;;1.00;0.20;;;5.80;86.20;;;;;;3617475;39;20047;-84
2021/04/10 06:56:30;;;;;;;1.95;0.20;;;5.90;84.10;;;;;;3610318;39;20057;-81
2021/04/10 06:59:15;;;;;;;3.90;0.10;;;6.20;86.30;;;;;;3608090;39;20372;-82
2021/04/10 07:01:42;;;;;;;2.45;0.73;;;6.30;82.50;;;;;;3616366;39;20031;-85
2021/04/10 07:04:10;;;;;;;2.22;0.10;;;6.30;83.00;;;;;;3607976;39;20050;-83
2021/04/10 07:06:39;;;;;;;6.20;1.05;;;6.40;86.80;;;;;;3616779;39;20589;-86
2021/04/10 07:09:06;;;;;;;0.30;0.10;;;6.40;86.50;;;;;;3608298;39;20047;-83
2021/04/10 07:11:32;;;;;;;2.75;0.55;;;6.60;86.00;;;;;;3607643;39;20051;-80
2021/04/10 07:14:00;;;;;;;1.13;0.10;;;6.90;85.70;;;;;;3609406;39;20116;-82
2021/04/10 07:16:26;;;;;;;3.28;0.40;;;7.00;84.00;;;;;;3606758;39;20032;-82
2021/04/10 07:18:54;;;;;;;3.58;0.35;;;7.10;82.20;;;;;;3580289;39;70363;-85
2021/04/10 07:21:24;;;;;;;2.60;0.10;;;7.40;82.70;;;;;;3590922;40;20043;-81
2021/04/10 07:23:52;;;;;;;0.63;0.20;;;7.30;75.60;;;;;;3588693;40;20044;-79
2021/04/10 07:26:39;;;;;;;2.40;0.10;;;7.10;82.70;;;;;;3588233;40;20045;-82
2021/04/10 07:29:06;;;;;;;0.63;0.30;;;7.00;75.20;;;;;;3585022;40;20044;-80
2021/04/10 07:31:33;;;;;;;0.50;0.10;;;7.00;77.60;;;;;;3587844;39;20338;-81
2021/04/10 07:33:59;;;;;;;1.67;0.40;;;7.60;82.10;;;;;;3586811;40;20320;-79
2021/04/10 07:36:26;;;;;;;1.48;0.82;;;8.30;74.50;;;;;;3589712;40;20363;-84
2021/04/10 07:39:01;;;;;;;1.25;0.43;;;9.10;78.00;;;;;;3590963;40;20651;-82
2021/04/10 07:41:27;;;;;;;1.90;0.10;;;9.60;73.80;;;;;;3589323;39;20037;-84
2021/04/10 07:43:54;;;;;;;3.28;0.28;;;9.60;77.90;;;;;;3587731;39;20051;-84
2021/04/10 07:46:25;;;;;;;2.42;0.10;;;9.20;72.70;;;;;;3588456;40;20050;-79
2021/04/10 07:49:10;;;;;;;4.10;0.88;;;9.00;77.20;;;;;;3593427;40;20583;-83
2021/04/10 07:52:04;;;;;;;1.42;0.20;;;8.80;73.10;;;;;;3592636;40;20074;-85
2021/04/10 07:54:37;;;;;;;;;;;9.00;73.50;;;;;;3591735;40;20037;-82
2021/04/10 07:57:05;;;;;;;2.15;0.30;;;8.80;69.40;;;;;;3594001;39;20450;-79
2021/04/10 07:59:33;;;;;;;1.25;0.10;;;8.60;74.70;;;;;;3596163;22;20092;-81
2021/04/10 08:02:13;;;;;;;0.98;0.20;;;8.40;75.10;;;;;;3572252;40;20041;-85
2021/04/10 08:05:23;;;;;;;2.30;0.30;;;8.40;73.70;;;;;;3575990;40;20387;-85
2021/04/10 08:07:52;;;;;;;3.70;1.50;;;8.20;65.30;;;;;;3534706;40;20073;-81
2021/04/10 08:10:28;;;;;;;0.90;0.17;;;8.00;74.00;;;;;;3561841;40;20324;-83
2021/04/10 08:13:08;;;;;;;1.90;0.20;;;8.10;73.40;;;;;;3573521;40;20599;-82
2021/04/10 08:15:34;;;;;;;3.00;0.32;;;8.00;76.90;;;;;;3574420;40;20289;-85
2021/04/10 08:18:00;;;;;;;0.65;0.10;;;8.10;69.10;;;;;;3576196;40;20103;-82
2021/04/10 08:20:28;;;;;;;2.17;0.10;;;8.10;73.60;;;;;;3568931;40;20588;-81
2021/04/10 08:23:18;;;;;;;0.73;0.57;;;8.40;74.70;;;;;;3569451;40;20055;-81
2021/04/10 08:25:45;;;;;;;3.20;0.20;;;8.80;75.30;;;;;;3575412;40;20041;-82
2021/04/10 08:28:14;;;;;;;0.73;0.22;;;8.90;72.80;;;;;;3575990;40;20513;-82
2021/04/10 08:30:41;;;;;;;0.38;0.20;;;9.20;73.60;;;;;;3575715;40;20033;-84
2021/04/10 08:33:07;;;;;;;2.00;0.20;;;9.10;75.60;;;;;;3566862;40;20051;-81
2021/04/10 08:35:32;;;;;;;8.98;2.38;;;9.20;75.30;;;;;;3576182;40;20044;-82
2021/04/10 08:38:00;;;;;;;0.63;0.50;;;9.10;73.60;;;;;;3576011;40;20136;-80
2021/04/10 08:40:27;;;;;;;0.50;0.40;;;9.20;68.10;;;;;;3575855;40;20037;-79
2021/04/10 08:42:56;;;;;;;1.20;0.00;;;9.20;74.80;;;;;;3568694;40;20052;-84
2021/04/10 08:45:37;;;;;;;0.98;0.10;;;9.10;67.40;;;;;;3569517;40;20044;-82
2021/04/10 08:48:09;;;;;;;1.67;0.10;;;9.10;75.40;;;;;;3567299;40;20229;-81
2021/04/10 08:50:37;;;;;;;2.45;0.10;;;8.80;67.60;;;;;;3566643;40;20175;-80
2021/04/10 08:53:07;;;;;;;3.80;0.20;;;8.60;69.50;;;;;;3576032;40;20040;-80
2021/04/10 08:55:34;;;;;;;4.45;0.10;;;8.30;73.20;;;;;;3567875;40;20048;-81
2021/04/10 08:58:18;;;;;;;1.80;0.03;;;8.30;77.00;;;;;;3575897;40;20319;-81
2021/04/10 09:00:44;;;;;;;1.17;0.15;;;8.30;65.90;;;;;;3574121;40;20032;-80
2021/04/10 09:03:10;;;;;;;6.07;0.73;;;8.30;71.90;;;;;;3566156;40;20057;-81
2021/04/10 09:05:51;;;;;;;2.03;0.52;;;8.20;68.70;;;;;;3575911;40;20045;-81
2021/04/10 09:08:27;;;;;;;0.30;0.08;;;8.20;65.00;;;;;;3576252;40;20384;-81
2021/04/10 09:11:04;;;;;;;0.63;0.10;;;8.30;67.50;;;;;;3575255;40;20036;-82
2021/04/10 09:13:51;;;;;;;1.63;0.28;;;8.20;70.70;;;;;;3575895;40;20045;-80
2021/04/10 09:16:20;;;;;;;1.58;0.00;;;8.20;69.10;;;;;;3566260;40;20071;-80
2021/04/10 09:19:13;;;;;;;1.38;0.10;;;8.20;68.40;;;;;;3572121;40;20143;-80
2021/04/10 09:21:46;;;;;;;2.78;0.20;;;8.00;68.00;;;;;;3563740;40;20243;-79
2021/04/10 09:24:23;;;;;;;1.88;0.43;;;8.10;71.10;;;;;;3575976;40;20339;-81
2021/04/10 09:27:18;;;;;;;1.20;0.43;;;8.10;72.10;;;;;;3575702;40;20045;-80
2021/04/10 09:30:06;;;;;;;0.93;0.10;;;8.30;72.30;;;;;;3570947;40;20057;-80
2021/04/10 09:32:37;;;;;;;4.10;0.10;;;8.50;68.80;;;;;;3571994;40;20037;-80
2021/04/10 09:35:13;;;;;;;1.48;0.10;;;8.60;73.20;;;;;;3575801;40;20044;-81
2021/04/10 09:37:39;;;;;;;1.35;0.00;;;8.70;71.40;;;;;;3573159;40;20402;-79
2021/04/10 09:40:15;;;;;;;1.95;0.43;;;8.70;70.60;;;;;;3577287;40;20068;-80
2021/04/10 09:45:09;;;;;;;2.92;0.10;;;8.80;68.30;;;;;;3577203;40;20033;-80
2021/04/10 09:47:55;;;;;;;1.25;0.03;;;8.70;69.30;;;;;;3576654;40;20053;-79
2021/04/10 09:50:24;;;;;;;0.17;0.10;;;8.70;67.00;;;;;;3576264;40;20069;-79
2021/04/10 09:52:53;;;;;;;0.45;0.00;;;8.60;70.50;;;;;;3576108;40;20036;-79
2021/04/10 09:55:20;;;;;;;0.63;0.57;;;8.60;75.30;;;;;;3576923;40;20232;-82
2021/04/10 09:58:00;;;;;;;0.98;0.00;;;8.60;73.60;;;;;;3574626;40;20127;-80
2021/04/10 10:00:30;;;;;;;0.40;0.30;;;8.70;69.20;;;;;;3576042;40;20053;-81
2021/04/10 10:02:57;;;;;;;1.13;0.17;;;8.80;70.70;;;;;;3576912;40;20453;-80
2021/04/10 10:05:24;;;;;;;0.43;0.10;;;8.80;72.00;;;;;;3576897;40;20077;-81
2021/04/10 10:07:53;;;;;;;1.33;0.00;;;8.90;71.60;;;;;;3577207;40;20045;-79
2021/04/10 10:10:19;;;;;;;2.15;0.20;;;9.10;73.40;;;;;;3573487;40;20093;-83
2021/04/10 10:12:45;;;;;;;1.67;0.00;;;9.30;70.10;;;;;;3576971;40;20099;-80
2021/04/10 10:15:21;;;;;;;2.33;0.10;;;9.30;75.30;;;;;;3575960;40;20037;-81
2021/04/10 10:17:46;;;;;;;1.30;0.00;;;9.20;74.90;;;;;;3574955;40;20029;-80
2021/04/10 10:20:14;;;;;;;3.25;0.00;;;9.30;71.20;;;;;;3577158;40;20076;-82
2021/04/10 10:22:40;;;;;;;1.75;0.10;;;9.20;70.70;;;;;;3576848;40;20037;-80
2021/04/10 10:25:08;;;;;;;1.65;0.65;;;9.30;69.40;;;;;;3576897;40;20051;-80
2021/04/10 10:27:45;;;;;;;0.73;0.40;;;9.20;71.40;;;;;;3567789;40;20556;-79
2021/04/10 10:30:13;;;;;;;0.82;0.10;;;9.20;66.80;;;;;;3573735;40;20060;-80
2021/04/10 10:32:43;;;;;;;0.93;0.10;;;9.30;64.20;;;;;;3575487;40;20056;-79
2021/04/10 10:35:10;;;;;;;1.63;0.20;;;9.30;74.00;;;;;;3576943;40;20258;-79
2021/04/10 10:37:35;;;;;;;1.02;0.00;;;9.30;71.90;;;;;;3576824;40;20033;-81
2021/04/10 10:40:01;;;;;;;0.40;0.10;;;9.40;71.60;;;;;;3574670;40;20037;-79
2021/04/10 10:42:28;;;;;;;0.63;0.03;;;9.50;72.70;;;;;;3575614;40;20044;-80
2021/04/10 10:44:53;;;;;;;1.13;0.08;;;9.50;69.80;;;;;;3584203;40;20334;-81
2021/04/10 10:47:23;;;;;;;2.05;0.10;;;9.60;68.80;;;;;;3575435;40;20049;-79
2021/04/10 10:49:51;;;;;;;1.33;0.10;;;9.60;72.10;;;;;;3576309;40;20041;-81
2021/04/10 10:52:18;;;;;;;0.40;0.20;;;9.70;68.40;;;;;;3576820;40;20044;-80
2021/04/10 10:54:47;;;;;;;1.00;0.00;;;9.80;70.40;;;;;;3576728;40;20779;-80
2021/04/10 10:57:17;;;;;;;2.28;0.10;;;9.80;69.90;;;;;;3575552;40;20052;-81
2021/04/10 10:59:43;;;;;;;2.00;0.13;;;9.90;68.50;;;;;;3575423;40;20053;-81
2021/04/10 11:02:10;;;;;;;0.30;0.00;;;10.00;64.40;;;;;;3576994;40;20033;-81
2021/04/10 11:04:37;;;;;;;1.55;0.00;;;10.10;67.00;;;;;;3576359;40;20044;-81
2021/04/10 11:07:06;;;;;;;0.30;0.10;;;10.10;70.20;;;;;;3576838;40;20047;-80
2021/04/10 11:09:34;;;;;;;0.30;0.25;;;9.90;69.00;;;;;;3576261;40;20215;-80
2021/04/10 11:12:12;;;;;;;1.10;0.38;;;9.70;67.40;;;;;;3572827;40;20067;-82
2021/04/10 11:14:42;;;;;;;1.33;0.03;;;9.50;67.10;;;;;;3576463;40;20059;-81
2021/04/10 11:17:10;;;;;;;0.40;0.10;;;9.60;69.60;;;;;;3575924;40;20056;-81
2021/04/10 11:19:45;;;;;;;0.47;0.20;;;9.60;68.40;;;;;;3576479;40;20032;-80
2021/04/10 11:22:16;;;;;;;0.15;0.00;;;9.70;67.90;;;;;;3575883;40;20375;-80
2021/04/10 11:24:44;;;;;;;1.42;0.30;;;9.70;73.50;;;;;;3575502;40;20047;-82
2021/04/10 11:27:14;;;;;;;3.83;0.10;;;9.60;67.20;;;;;;3575947;40;20037;-81
2021/04/10 11:29:54;;;;;;;1.85;0.10;;;9.50;69.50;;;;;;3576271;40;20041;-80
2021/04/10 11:32:42;;;;;;;0.15;0.00;;;9.40;60.20;;;;;;3576588;40;20135;-80
2021/04/10 11:35:17;;;;;;;1.80;0.45;;;9.50;61.80;;;;;;3576742;40;20064;-81
2021/04/10 11:38:06;;;;;;;0.20;0.00;;;9.60;66.70;;;;;;3575733;40;20118;-80
2021/04/10 11:40:36;;;;;;;0.75;0.10;;;9.80;57.80;;;;;;3575210;40;20033;-81
2021/04/10 11:43:04;;;;;;;1.05;0.10;;;9.60;65.90;;;;;;3576589;40;20046;-80
2021/04/10 11:45:35;;;;;;;0.63;0.00;;;9.40;68.30;;;;;;3575376;40;20044;-80
2021/04/10 11:48:21;;;;;;;2.03;0.10;;;9.30;60.70;;;;;;3576608;40;20044;-80
2021/04/10 11:50:51;;;;;;;0.20;0.05;;;9.40;58.60;;;;;;3573825;40;20053;-80
2021/04/10 11:53:19;;;;;;;0.95;0.10;;;9.40;63.60;;;;;;3583712;40;20295;-80
2021/04/10 11:55:46;;;;;;;2.50;0.10;;;9.30;61.70;;;;;;3571917;40;20134;-80
2021/04/10 11:58:12;;;;;;;0.30;0.30;;;9.30;68.80;;;;;;3567154;40;20045;-80
2021/04/10 12:00:39;;;;;;;2.17;0.38;;;9.30;66.60;;;;;;3584579;40;20036;-81
2021/04/10 12:03:11;;;;;;;0.30;0.30;;;9.30;67.20;;;;;;3576482;40;20134;-80
2021/04/10 12:05:42;;;;;;;0.10;0.00;;;9.30;64.60;;;;;;3576957;40;20159;-80
2021/04/10 12:08:23;;;;;;;3.53;0.30;;;9.40;62.80;;;;;;3586126;40;20408;-80
2021/04/10 12:11:10;;;;;;;0.10;0.00;;;9.40;57.80;;;;;;3583720;40;20044;-80
2021/04/10 12:13:37;;;;;;;3.20;0.10;;;9.40;62.00;;;;;;3585634;40;20047;-80
2021/04/10 12:16:02;;;;;;;0.43;0.32;;;9.40;60.60;;;;;;3575289;40;20052;-80
2021/04/10 12:18:29;;;;;;;1.58;0.00;;;9.40;59.60;;;;;;3584617;40;20044;-80
2021/04/10 12:20:56;;;;;;;0.20;0.00;;;9.40;57.40;;;;;;3586478;40;20393;-80
2021/04/10 12:23:23;;;;;;;0.05;0.00;;;9.50;62.10;;;;;;3586284;40;20040;-81
2021/04/10 12:25:50;;;;;;;1.13;0.32;;;9.50;67.20;;;;;;3576944;40;20079;-80
2021/04/10 12:28:18;;;;;;;0.85;0.40;;;9.50;60.20;;;;;;3586331;40;20048;-80
2021/04/10 12:30:44;;;;;;;0.75;0.00;;;9.40;58.60;;;;;;3586304;40;20055;-80
2021/04/10 12:33:10;;;;;;;3.20;0.40;;;9.30;57.60;;;;;;3586349;40;20052;-80
2021/04/10 12:35:36;;;;;;;0.47;0.10;;;9.40;62.40;;;;;;3576853;40;20076;-79
2021/04/10 12:38:05;;;;;;;3.13;0.10;;;9.40;61.40;;;;;;3586271;40;20303;-80
2021/04/10 12:40:31;;;;;;;0.47;0.00;;;9.30;64.10;;;;;;3585845;40;20044;-81
2021/04/10 12:42:57;;;;;;;1.17;0.10;;;9.20;61.40;;;;;;3577011;40;20056;-80
2021/04/10 12:45:23;;;;;;;1.33;0.00;;;9.30;62.90;;;;;;3586410;40;20043;-79
2021/04/10 12:47:49;;;;;;;0.10;0.00;;;9.40;62.30;;;;;;3576682;40;20037;-79
2021/04/10 12:50:21;;;;;;;2.13;0.80;;;9.40;61.60;;;;;;3586598;40;20048;-80
2021/04/10 12:52:48;;;;;;;2.07;0.40;;;9.30;64.60;;;;;;3585974;40;20052;-80
2021/04/10 12:55:15;;;;;;;0.40;0.00;;;9.30;57.30;;;;;;3585228;40;20216;-80
2021/04/10 12:57:41;;;;;;;1.02;0.43;;;9.30;64.00;;;;;;3576089;40;20036;-80
2021/04/10 13:00:09;;;;;;;1.63;0.10;;;9.20;56.20;;;;;;3583699;40;20350;-80
2021/04/10 13:02:35;;;;;;;0.35;0.10;;;9.20;61.20;;;;;;3576615;40;20372;-80
2021/04/10 13:05:01;;;;;;;0.00;0.00;;;9.20;59.90;;;;;;3585896;40;20040;-80
2021/04/10 13:07:27;;;;;;;0.20;0.10;;;9.30;58.50;;;;;;3567705;40;20336;-80
2021/04/10 13:09:53;;;;;;;0.25;0.05;;;9.20;59.90;;;;;;3585680;40;20070;-80
2021/04/10 13:12:21;;;;;;;0.25;0.00;;;9.20;63.50;;;;;;3585503;40;20040;-81